createdAt,value
2023-03-09T00:00:18.868Z,15
2023-03-09T00:01:28.721Z,17
2023-03-09T00:02:35.628Z,16
2023-03-09T00:03:42.893Z,16
2023-03-09T00:04:49.876Z,15
2023-03-09T00:05:58.151Z,13
2023-03-09T00:07:05.156Z,16
2023-03-09T00:08:12.137Z,15
2023-03-09T00:09:19.904Z,17
2023-03-09T00:10:26.902Z,15
2023-03-09T00:11:33.869Z,17
2023-03-09T00:12:41.373Z,17
2023-03-09T00:13:49.313Z,19
2023-03-09T00:15:00.049Z,19
2023-03-09T00:16:07.918Z,15
2023-03-09T00:17:14.935Z,15
2023-03-09T00:18:24.550Z,16
2023-03-09T00:19:32.095Z,17
2023-03-09T00:20:39.111Z,17
2023-03-09T00:21:47.049Z,15
2023-03-09T00:22:54.183Z,14
2023-03-09T00:24:01.263Z,14
2023-03-09T00:25:11.073Z,14
2023-03-09T00:26:18.842Z,15
2023-03-09T00:27:26.419Z,13
2023-03-09T00:28:33.588Z,17
2023-03-09T00:29:40.623Z,14
2023-03-09T00:30:47.600Z,13
2023-03-09T00:31:54.724Z,15
2023-03-09T00:33:02.412Z,15
2023-03-09T00:34:10.171Z,14
2023-03-09T00:35:17.255Z,14
2023-03-09T00:36:24.292Z,15
2023-03-09T00:37:31.256Z,12
2023-03-09T00:38:38.297Z,14
2023-03-09T00:39:45.329Z,12
2023-03-09T00:40:52.300Z,13
2023-03-09T00:41:59.438Z,11
2023-03-09T00:43:06.580Z,13
2023-03-09T00:44:13.577Z,12
2023-03-09T00:45:20.552Z,11
2023-03-09T00:46:27.585Z,13
2023-03-09T00:47:37.180Z,12
2023-03-09T00:48:44.141Z,12
2023-03-09T00:49:56.955Z,13
2023-03-09T00:51:06.452Z,14
2023-03-09T00:52:13.420Z,13
2023-03-09T00:53:20.505Z,14
2023-03-09T00:54:27.525Z,13
2023-03-09T00:55:35.621Z,12
2023-03-09T00:56:43.373Z,14
2023-03-09T00:57:50.263Z,13
2023-03-09T00:59:00.117Z,12
2023-03-09T01:00:07.101Z,12
2023-03-09T01:01:14.434Z,12
2023-03-09T01:02:22.210Z,12
2023-03-09T01:03:29.511Z,11
2023-03-09T01:04:36.938Z,14
2023-03-09T01:05:44.205Z,12
2023-03-09T01:06:52.084Z,12
2023-03-09T01:07:59.109Z,12
2023-03-09T01:09:06.245Z,12
2023-03-09T01:10:16.178Z,11
2023-03-09T01:11:24.870Z,11
2023-03-09T01:12:31.912Z,11
2023-03-09T01:13:38.996Z,13
2023-03-09T01:14:46.985Z,11
2023-03-09T01:15:54.007Z,12
2023-03-09T01:17:03.595Z,12
2023-03-09T01:18:10.487Z,11
2023-03-09T01:19:17.539Z,11
2023-03-09T01:20:24.591Z,12
2023-03-09T01:21:31.807Z,11
2023-03-09T01:22:38.719Z,12
2023-03-09T01:23:45.718Z,11
2023-03-09T01:24:55.615Z,10
2023-03-09T01:26:02.806Z,12
2023-03-09T01:27:09.805Z,12
2023-03-09T01:28:16.818Z,10
2023-03-09T01:29:24.785Z,11
2023-03-09T01:30:32.570Z,11
2023-03-09T01:31:39.516Z,12
2023-03-09T01:32:47.230Z,11
2023-03-09T01:33:54.228Z,11
2023-03-09T01:35:01.273Z,10
2023-03-09T01:36:09.395Z,11
2023-03-09T01:37:19.576Z,11
2023-03-09T01:38:26.564Z,9
2023-03-09T01:39:37.469Z,10
2023-03-09T01:40:44.470Z,10
2023-03-09T01:41:51.437Z,12
2023-03-09T01:43:01.136Z,13
2023-03-09T01:44:18.231Z,14
2023-03-09T01:45:25.246Z,15
2023-03-09T01:46:32.332Z,13
2023-03-09T01:47:39.256Z,9
2023-03-09T01:48:46.296Z,12
2023-03-09T01:49:53.400Z,14
2023-03-09T01:51:00.312Z,10
2023-03-09T01:52:07.351Z,10
2023-03-09T01:53:22.432Z,12
2023-03-09T01:54:29.362Z,12
2023-03-09T01:55:36.267Z,10
2023-03-09T01:56:43.225Z,12
2023-03-09T01:57:52.440Z,11
2023-03-09T01:59:02.849Z,12
2023-03-09T02:00:09.814Z,11
2023-03-09T02:01:25.830Z,11
2023-03-09T02:02:32.764Z,12
2023-03-09T02:03:39.704Z,12
2023-03-09T02:04:46.720Z,11
2023-03-09T02:05:53.788Z,12
2023-03-09T02:07:00.821Z,10
2023-03-09T02:08:08.194Z,10
2023-03-09T02:09:15.162Z,10
2023-03-09T02:10:28.056Z,12
2023-03-09T02:11:43.129Z,10
2023-03-09T02:12:50.594Z,11
2023-03-09T02:14:00.654Z,11
2023-03-09T02:15:08.232Z,11
2023-03-09T02:16:16.344Z,11
2023-03-09T02:17:23.274Z,11
2023-03-09T02:18:33.098Z,13
2023-03-09T02:19:40.888Z,10
2023-03-09T02:20:57.593Z,11
2023-03-09T02:22:14.461Z,11
2023-03-09T02:23:21.430Z,13
2023-03-09T02:24:39.114Z,11
2023-03-09T02:25:53.705Z,11
2023-03-09T02:27:06.704Z,13
2023-03-09T02:28:24.202Z,11
2023-03-09T02:29:31.425Z,12
2023-03-09T02:30:39.442Z,10
2023-03-09T02:31:47.387Z,9
2023-03-09T02:32:54.191Z,11
2023-03-09T02:34:06.187Z,11
2023-03-09T02:35:13.928Z,10
2023-03-09T02:36:21.008Z,12
2023-03-09T02:37:28.155Z,11
2023-03-09T02:38:35.225Z,13
2023-03-09T02:39:45.771Z,12
2023-03-09T02:40:53.073Z,13
2023-03-09T02:42:02.875Z,13
2023-03-09T02:43:09.960Z,11
2023-03-09T02:44:17.024Z,13
2023-03-09T02:45:24.063Z,12
2023-03-09T02:46:32.572Z,13
2023-03-09T02:47:39.605Z,12
2023-03-09T02:48:46.662Z,14
2023-03-09T02:49:54.448Z,12
2023-03-09T02:51:01.479Z,15
2023-03-09T02:52:08.796Z,12
2023-03-09T02:53:15.735Z,10
2023-03-09T02:54:22.764Z,11
2023-03-09T02:55:29.820Z,11
2023-03-09T02:56:36.762Z,11
2023-03-09T02:57:43.814Z,10
2023-03-09T02:58:53.638Z,12
2023-03-09T03:00:05.987Z,11
2023-03-09T03:01:14.269Z,11
2023-03-09T03:02:21.272Z,11
2023-03-09T03:03:28.295Z,12
2023-03-09T03:04:35.361Z,13
2023-03-09T03:05:42.398Z,11
2023-03-09T03:06:49.364Z,12
2023-03-09T03:07:56.396Z,12
2023-03-09T03:09:03.318Z,11
2023-03-09T03:10:11.874Z,11
2023-03-09T03:11:19.803Z,11
2023-03-09T03:12:26.737Z,12
2023-03-09T03:13:34.650Z,10
2023-03-09T03:14:43.077Z,10
2023-03-09T03:15:49.989Z,10
2023-03-09T03:17:02.706Z,11
2023-03-09T03:18:09.701Z,12
2023-03-09T03:19:16.854Z,10
2023-03-09T03:20:24.624Z,11
2023-03-09T03:21:32.018Z,10
2023-03-09T03:22:41.970Z,10
2023-03-09T03:23:48.979Z,10
2023-03-09T03:24:58.363Z,10
2023-03-09T03:26:05.427Z,10
2023-03-09T03:27:12.450Z,11
2023-03-09T03:28:23.715Z,9
2023-03-09T03:29:30.751Z,8
2023-03-09T03:30:37.762Z,9
2023-03-09T03:31:44.880Z,8
2023-03-09T03:32:51.782Z,9
2023-03-09T03:33:59.726Z,8
2023-03-09T03:35:06.704Z,8
2023-03-09T03:36:14.522Z,10
2023-03-09T03:37:24.189Z,9
2023-03-09T03:38:31.246Z,8
2023-03-09T03:39:41.374Z,12
2023-03-09T03:40:48.339Z,13
2023-03-09T03:41:56.272Z,12
2023-03-09T03:43:03.263Z,12
2023-03-09T03:44:10.242Z,12
2023-03-09T03:45:20.464Z,10
2023-03-09T03:46:27.518Z,11
2023-03-09T03:47:34.445Z,8
2023-03-09T03:48:41.402Z,7
2023-03-09T03:49:48.301Z,7
2023-03-09T03:50:55.314Z,7
2023-03-09T03:52:02.458Z,8
2023-03-09T03:53:10.082Z,7
2023-03-09T03:54:17.120Z,9
2023-03-09T03:55:24.086Z,8
2023-03-09T03:56:33.862Z,10
2023-03-09T03:57:41.015Z,9
2023-03-09T03:58:51.001Z,9
2023-03-09T03:59:58.004Z,12
2023-03-09T04:01:04.986Z,10
2023-03-09T04:02:12.122Z,11
2023-03-09T04:03:21.867Z,10
2023-03-09T04:04:29.020Z,11
2023-03-09T04:05:38.864Z,11
2023-03-09T04:06:46.191Z,12
2023-03-09T04:07:56.077Z,12
2023-03-09T04:09:04.049Z,11
2023-03-09T04:10:11.063Z,12
2023-03-09T04:11:18.283Z,11
2023-03-09T04:12:25.690Z,11
2023-03-09T04:13:32.648Z,11
2023-03-09T04:14:40.184Z,13
2023-03-09T04:15:47.533Z,11
2023-03-09T04:16:56.690Z,13
2023-03-09T04:18:01.659Z,12
2023-03-09T04:19:08.693Z,14
2023-03-09T04:20:18.734Z,12
2023-03-09T04:21:25.722Z,12
2023-03-09T04:22:32.634Z,12
2023-03-09T04:23:39.601Z,10
2023-03-09T04:24:47.701Z,13
2023-03-09T04:25:55.626Z,11
2023-03-09T04:27:02.627Z,12
2023-03-09T04:28:09.574Z,11
2023-03-09T04:29:16.602Z,12
2023-03-09T04:30:23.591Z,13
2023-03-09T04:31:31.410Z,12
2023-03-09T04:32:38.481Z,12
2023-03-09T04:33:45.421Z,12
2023-03-09T04:34:52.311Z,12
2023-03-09T04:35:59.581Z,12
2023-03-09T04:37:06.655Z,13
2023-03-09T04:38:13.980Z,10
2023-03-09T04:39:20.985Z,10
2023-03-09T04:40:29.969Z,11
2023-03-09T04:41:36.874Z,11
2023-03-09T04:42:44.539Z,12
2023-03-09T04:43:51.495Z,11
2023-03-09T04:45:01.158Z,11
2023-03-09T04:46:09.664Z,12
2023-03-09T04:47:16.688Z,11
2023-03-09T04:48:23.617Z,13
2023-03-09T04:49:30.853Z,11
2023-03-09T04:50:37.916Z,10
2023-03-09T04:51:44.821Z,11
2023-03-09T04:52:51.896Z,11
2023-03-09T04:53:59.008Z,11
2023-03-09T04:55:06.010Z,10
2023-03-09T04:56:13.038Z,11
2023-03-09T04:57:21.946Z,11
2023-03-09T04:58:28.937Z,9
2023-03-09T04:59:36.745Z,11
2023-03-09T05:00:44.574Z,9
2023-03-09T05:01:51.621Z,10
2023-03-09T05:02:58.576Z,10
2023-03-09T05:04:05.429Z,10
2023-03-09T05:05:12.317Z,10
2023-03-09T05:06:19.463Z,10
2023-03-09T05:07:27.478Z,10
2023-03-09T05:08:34.513Z,9
2023-03-09T05:09:42.530Z,12
2023-03-09T05:10:49.638Z,10
2023-03-09T05:11:56.617Z,10
2023-03-09T05:13:03.588Z,10
2023-03-09T05:14:10.699Z,10
2023-03-09T05:15:18.435Z,10
2023-03-09T05:16:26.314Z,10
2023-03-09T05:17:33.128Z,10
2023-03-09T05:18:40.930Z,9
2023-03-09T05:19:47.830Z,10
2023-03-09T05:20:54.958Z,9
2023-03-09T05:22:01.899Z,10
2023-03-09T05:23:08.892Z,9
2023-03-09T05:24:18.940Z,10
2023-03-09T05:25:25.893Z,10
2023-03-09T05:26:33.194Z,10
2023-03-09T05:27:40.157Z,9
2023-03-09T05:28:49.685Z,10
2023-03-09T05:29:56.850Z,11
2023-03-09T05:31:04.732Z,11
2023-03-09T05:32:11.822Z,11
2023-03-09T05:33:18.742Z,10
2023-03-09T05:34:30.322Z,11
2023-03-09T05:35:37.432Z,13
2023-03-09T05:36:45.291Z,12
2023-03-09T05:37:52.230Z,12
2023-03-09T05:38:59.444Z,11
2023-03-09T05:40:07.422Z,12
2023-03-09T05:41:14.655Z,11
2023-03-09T05:42:23.221Z,12
2023-03-09T05:43:30.094Z,12
2023-03-09T05:44:39.793Z,12
2023-03-09T05:45:47.388Z,11
2023-03-09T05:47:00.261Z,11
2023-03-09T05:48:07.598Z,10
2023-03-09T05:49:14.476Z,11
2023-03-09T05:50:21.531Z,13
2023-03-09T05:51:28.668Z,12
2023-03-09T05:52:35.676Z,12
2023-03-09T05:53:42.872Z,13
2023-03-09T05:54:49.758Z,12
2023-03-09T05:55:56.955Z,12
2023-03-09T05:57:04.007Z,12
2023-03-09T05:58:10.997Z,12
2023-03-09T05:59:18.165Z,11
2023-03-09T06:00:28.592Z,11
2023-03-09T06:01:35.616Z,12
2023-03-09T06:02:43.578Z,15
2023-03-09T06:03:50.887Z,12
2023-03-09T06:04:57.860Z,12
2023-03-09T06:06:04.892Z,12
2023-03-09T06:07:12.759Z,12
2023-03-09T06:08:19.763Z,13
2023-03-09T06:09:26.748Z,15
2023-03-09T06:10:33.814Z,14
2023-03-09T06:11:42.275Z,14
2023-03-09T06:12:49.263Z,15
2023-03-09T06:13:59.075Z,15
2023-03-09T06:15:06.072Z,14
2023-03-09T06:16:13.419Z,12
2023-03-09T06:17:21.211Z,12
2023-03-09T06:18:28.543Z,14
2023-03-09T06:19:38.213Z,13
2023-03-09T06:20:45.214Z,12
2023-03-09T06:21:52.341Z,12
2023-03-09T06:22:59.390Z,10
2023-03-09T06:24:06.497Z,12
2023-03-09T06:25:14.639Z,11
2023-03-09T06:26:24.861Z,11
2023-03-09T06:27:32.054Z,11
2023-03-09T06:28:39.140Z,11
2023-03-09T06:29:46.208Z,10
2023-03-09T06:30:53.210Z,10
2023-03-09T06:32:00.429Z,16
2023-03-09T06:33:10.496Z,15
2023-03-09T06:34:17.777Z,11
2023-03-09T06:35:25.989Z,10
2023-03-09T06:36:32.874Z,11
2023-03-09T06:37:42.189Z,10
2023-03-09T06:38:49.272Z,10
2023-03-09T06:39:59.237Z,12
2023-03-09T06:41:11.771Z,11
2023-03-09T06:42:22.195Z,11
2023-03-09T06:43:29.467Z,12
2023-03-09T06:44:38.411Z,10
2023-03-09T06:45:45.712Z,10
2023-03-09T06:46:52.768Z,11
2023-03-09T06:48:01.942Z,11
2023-03-09T06:49:09.016Z,12
2023-03-09T06:50:15.965Z,12
2023-03-09T06:51:22.891Z,11
2023-03-09T06:52:30.636Z,11
2023-03-09T06:53:38.793Z,12
2023-03-09T06:54:45.746Z,12
2023-03-09T06:55:52.639Z,12
2023-03-09T06:56:59.508Z,11
2023-03-09T06:58:07.018Z,11
2023-03-09T06:59:14.093Z,12
2023-03-09T07:00:21.923Z,12
2023-03-09T07:01:29.038Z,13
2023-03-09T07:02:38.010Z,14
2023-03-09T07:03:46.665Z,11
2023-03-09T07:04:57.603Z,11
2023-03-09T07:06:04.691Z,15
2023-03-09T07:07:15.929Z,12
2023-03-09T07:08:26.346Z,13
2023-03-09T07:09:35.114Z,15
2023-03-09T07:10:42.114Z,11
2023-03-09T07:11:49.080Z,12
2023-03-09T07:12:57.906Z,14
2023-03-09T07:14:04.941Z,12
2023-03-09T07:15:12.643Z,12
2023-03-09T07:16:22.771Z,11
2023-03-09T07:17:29.757Z,13
2023-03-09T07:18:36.848Z,12
2023-03-09T07:19:45.358Z,13
2023-03-09T07:20:53.015Z,12
2023-03-09T07:22:00.052Z,11
2023-03-09T07:23:07.108Z,12
2023-03-09T07:24:14.200Z,12
2023-03-09T07:25:24.013Z,11
2023-03-09T07:26:31.070Z,14
2023-03-09T07:27:38.665Z,11
2023-03-09T07:28:45.636Z,14
2023-03-09T07:29:54.394Z,12
2023-03-09T07:31:01.396Z,13
2023-03-09T07:32:13.448Z,13
2023-03-09T07:33:20.387Z,11
2023-03-09T07:34:30.649Z,11
2023-03-09T07:35:42.596Z,11
2023-03-09T07:36:49.425Z,10
2023-03-09T07:37:56.397Z,11
2023-03-09T07:39:03.465Z,12
2023-03-09T07:40:10.533Z,13
2023-03-09T07:41:17.778Z,9
2023-03-09T07:42:35.750Z,9
2023-03-09T07:43:31.881Z,9
2023-03-09T07:44:40.137Z,13
2023-03-09T07:45:49.924Z,12
2023-03-09T07:47:00.169Z,11
2023-03-09T07:48:07.341Z,12
2023-03-09T07:49:14.415Z,12
2023-03-09T07:50:21.454Z,10
2023-03-09T07:51:29.291Z,9
2023-03-09T07:52:36.392Z,11
2023-03-09T07:53:43.356Z,13
2023-03-09T07:54:50.990Z,12
2023-03-09T07:56:00.005Z,13
2023-03-09T07:57:09.483Z,13
2023-03-09T07:58:16.846Z,15
2023-03-09T07:59:25.540Z,16
2023-03-09T08:00:33.046Z,16
2023-03-09T08:01:40.546Z,12
2023-03-09T08:02:48.217Z,14
2023-03-09T08:03:55.245Z,14
2023-03-09T08:05:02.374Z,14
2023-03-09T08:06:10.483Z,14
2023-03-09T08:07:20.602Z,12
2023-03-09T08:08:27.563Z,14
2023-03-09T08:09:35.483Z,13
2023-03-09T08:10:43.916Z,14
2023-03-09T08:11:54.904Z,14
2023-03-09T08:13:03.667Z,11
2023-03-09T08:14:13.944Z,10
2023-03-09T08:15:21.276Z,11
2023-03-09T08:16:28.437Z,13
2023-03-09T08:17:35.974Z,12
2023-03-09T08:18:43.396Z,11
2023-03-09T08:19:50.372Z,12
2023-03-09T08:20:58.325Z,14
2023-03-09T08:22:10.732Z,13
2023-03-09T08:23:17.730Z,13
2023-03-09T08:24:25.262Z,12
2023-03-09T08:25:36.018Z,11
2023-03-09T08:26:44.176Z,13
2023-03-09T08:27:51.208Z,10
2023-03-09T08:28:58.394Z,11
2023-03-09T08:30:05.535Z,11
2023-03-09T08:31:15.836Z,10
2023-03-09T08:32:22.787Z,11
2023-03-09T08:33:31.207Z,10
2023-03-09T08:34:38.271Z,13
2023-03-09T08:35:48.133Z,11
2023-03-09T08:36:55.317Z,11
2023-03-09T08:38:02.565Z,12
2023-03-09T08:39:09.833Z,12
2023-03-09T08:40:16.924Z,11
2023-03-09T08:41:23.977Z,11
2023-03-09T08:42:31.117Z,10
2023-03-09T08:43:38.118Z,12
2023-03-09T08:44:45.202Z,11
2023-03-09T08:45:52.400Z,10
2023-03-09T08:46:59.330Z,8
2023-03-09T08:48:06.338Z,9
2023-03-09T08:49:16.738Z,9
2023-03-09T08:50:23.785Z,10
2023-03-09T08:51:30.790Z,9
2023-03-09T08:52:37.816Z,10
2023-03-09T08:53:46.796Z,10
2023-03-09T08:54:53.785Z,12
2023-03-09T08:56:01.050Z,11
2023-03-09T08:57:08.192Z,13
2023-03-09T08:58:15.269Z,15
2023-03-09T08:59:22.369Z,14
2023-03-09T09:00:29.580Z,16
2023-03-09T09:01:36.612Z,16
2023-03-09T09:02:43.783Z,16
2023-03-09T09:03:50.724Z,16
2023-03-09T09:04:58.440Z,14
2023-03-09T09:06:05.694Z,16
2023-03-09T09:07:12.869Z,16
2023-03-09T09:08:20.013Z,14
2023-03-09T09:09:26.983Z,16
2023-03-09T09:10:35.787Z,18
2023-03-09T09:11:43.981Z,13
2023-03-09T09:12:51.061Z,16
2023-03-09T09:14:01.837Z,16
2023-03-09T09:15:09.547Z,15
2023-03-09T09:16:16.634Z,18
2023-03-09T09:17:23.532Z,17
2023-03-09T09:18:40.651Z,17
2023-03-09T09:19:40.425Z,17
2023-03-09T09:20:47.558Z,14
2023-03-09T09:21:54.596Z,14
2023-03-09T09:23:01.637Z,14
2023-03-09T09:24:08.934Z,16
2023-03-09T09:25:18.881Z,15
2023-03-09T09:26:25.848Z,15
2023-03-09T09:27:33.570Z,15
2023-03-09T09:28:40.547Z,14
2023-03-09T09:29:47.878Z,14
2023-03-09T09:30:54.975Z,14
2023-03-09T09:32:04.801Z,15
2023-03-09T09:33:11.879Z,15
2023-03-09T09:34:19.009Z,13
2023-03-09T09:35:25.985Z,12
2023-03-09T09:36:33.965Z,14
2023-03-09T09:37:42.486Z,14
2023-03-09T09:38:49.420Z,12
2023-03-09T09:39:56.359Z,12
2023-03-09T09:41:03.266Z,13
2023-03-09T09:42:10.101Z,11
2023-03-09T09:43:27.201Z,11
2023-03-09T09:44:34.068Z,12
2023-03-09T09:45:46.221Z,10
2023-03-09T09:46:53.912Z,11
2023-03-09T09:48:01.595Z,12
2023-03-09T09:49:19.257Z,11
2023-03-09T09:50:19.294Z,9
2023-03-09T09:51:26.039Z,9
2023-03-09T09:52:43.087Z,9
2023-03-09T09:53:55.136Z,9
2023-03-09T09:55:07.054Z,9
2023-03-09T09:56:22.477Z,10
2023-03-09T09:57:29.547Z,10
2023-03-09T09:58:49.997Z,10
2023-03-09T09:59:54.386Z,11
2023-03-09T10:01:11.591Z,10
2023-03-09T10:02:24.384Z,11
2023-03-09T10:03:36.365Z,11
2023-03-09T10:04:43.143Z,11
2023-03-09T10:05:50.948Z,12
2023-03-09T10:06:57.809Z,10
2023-03-09T10:08:04.813Z,11
2023-03-09T10:09:21.795Z,10
2023-03-09T10:10:28.643Z,11
2023-03-09T10:11:35.499Z,9
2023-03-09T10:12:45.215Z,13
2023-03-09T10:13:52.244Z,12
2023-03-09T10:15:04.133Z,13
2023-03-09T10:16:11.324Z,12
2023-03-09T10:17:18.356Z,11
2023-03-09T10:18:25.150Z,12
2023-03-09T10:19:37.906Z,13
2023-03-09T10:20:45.651Z,13
2023-03-09T10:21:54.974Z,13
2023-03-09T10:23:02.635Z,12
2023-03-09T10:24:14.565Z,11
2023-03-09T10:25:24.169Z,11
2023-03-09T10:26:30.941Z,11
2023-03-09T10:27:37.755Z,10
2023-03-09T10:28:49.754Z,11
2023-03-09T10:30:04.770Z,12
2023-03-09T10:31:09.332Z,12
2023-03-09T10:32:16.149Z,11
2023-03-09T10:33:23.068Z,11
2023-03-09T10:34:40.099Z,13
2023-03-09T10:35:47.694Z,12
2023-03-09T10:37:02.727Z,13
2023-03-09T10:38:09.556Z,14
2023-03-09T10:39:20.357Z,12
2023-03-09T10:40:27.293Z,14
2023-03-09T10:41:34.118Z,13
2023-03-09T10:42:42.672Z,14
2023-03-09T10:43:49.494Z,16
2023-03-09T10:44:57.919Z,13
2023-03-09T10:46:08.110Z,14
2023-03-09T10:47:14.968Z,14
2023-03-09T10:48:21.812Z,13
2023-03-09T10:49:28.708Z,11
2023-03-09T10:50:37.760Z,12
2023-03-09T10:51:44.168Z,13
2023-03-09T10:53:01.128Z,11
2023-03-09T10:54:18.121Z,10
2023-03-09T10:55:33.319Z,12
2023-03-09T10:56:40.187Z,11
2023-03-09T10:57:47.069Z,15
2023-03-09T10:58:59.747Z,9
2023-03-09T11:00:06.669Z,9
2023-03-09T11:01:16.415Z,9
2023-03-09T11:02:23.253Z,9
2023-03-09T11:03:33.620Z,16
2023-03-09T11:04:40.600Z,12
2023-03-09T11:05:47.342Z,9
2023-03-09T11:06:57.030Z,11
2023-03-09T11:08:04.355Z,9
2023-03-09T11:09:15.240Z,10
2023-03-09T11:10:18.408Z,10
2023-03-09T11:11:30.271Z,8
2023-03-09T11:12:37.163Z,8
2023-03-09T11:13:44.014Z,7
2023-03-09T11:14:50.965Z,8
2023-03-09T11:16:00.125Z,9
2023-03-09T11:17:15.041Z,9
2023-03-09T11:18:29.629Z,9
2023-03-09T11:19:36.564Z,7
2023-03-09T11:20:43.506Z,8
2023-03-09T11:21:50.252Z,8
2023-03-09T11:22:59.872Z,8
2023-03-09T11:24:19.545Z,10
2023-03-09T11:25:24.705Z,9
2023-03-09T11:26:41.620Z,10
2023-03-09T11:27:54.227Z,9
2023-03-09T11:29:02.035Z,10
2023-03-09T11:30:20.127Z,10
2023-03-09T11:31:27.195Z,10
2023-03-09T11:32:39.348Z,9
2023-03-09T11:33:46.218Z,11
2023-03-09T11:34:53.862Z,11
2023-03-09T11:36:00.695Z,10
2023-03-09T11:37:08.555Z,12
2023-03-09T11:38:20.555Z,10
2023-03-09T11:39:27.613Z,9
2023-03-09T11:40:40.306Z,9
2023-03-09T11:41:51.763Z,9
2023-03-09T11:42:58.824Z,10
2023-03-09T11:44:08.751Z,8
2023-03-09T11:45:17.555Z,9
2023-03-09T11:46:24.989Z,10
2023-03-09T11:47:31.857Z,11
2023-03-09T11:48:42.048Z,10
2023-03-09T11:49:50.919Z,9
2023-03-09T11:51:01.053Z,10
2023-03-09T11:52:11.780Z,12
2023-03-09T11:53:18.616Z,10
2023-03-09T11:54:25.885Z,11
2023-03-09T11:55:37.874Z,12
2023-03-09T11:56:44.997Z,11
2023-03-09T11:57:52.702Z,9
2023-03-09T11:58:59.677Z,9
2023-03-09T12:00:14.695Z,8
2023-03-09T12:01:21.948Z,9
2023-03-09T12:02:39.083Z,9
2023-03-09T12:03:51.778Z,11
2023-03-09T12:05:06.361Z,8
2023-03-09T12:06:15.900Z,9
2023-03-09T12:07:26.295Z,9
2023-03-09T12:08:36.260Z,8
2023-03-09T12:09:44.847Z,9
2023-03-09T12:11:01.800Z,10
2023-03-09T12:12:13.527Z,10
2023-03-09T12:13:25.521Z,11
2023-03-09T12:14:37.514Z,12
2023-03-09T12:15:44.422Z,12
2023-03-09T12:16:55.217Z,14
2023-03-09T12:18:05.188Z,13
2023-03-09T12:19:12.199Z,13
2023-03-09T12:20:20.054Z,13
2023-03-09T12:21:35.275Z,12
2023-03-09T12:22:45.892Z,12
2023-03-09T12:23:53.599Z,13
2023-03-09T12:25:00.564Z,12
2023-03-09T12:26:07.605Z,12
2023-03-09T12:27:19.635Z,12
2023-03-09T12:28:29.971Z,13
2023-03-09T12:29:37.037Z,13
2023-03-09T12:30:52.405Z,13
2023-03-09T12:31:59.239Z,11
2023-03-09T12:33:14.003Z,9
2023-03-09T12:34:21.306Z,9
2023-03-09T12:35:28.415Z,10
2023-03-09T12:36:43.566Z,9
2023-03-09T12:37:51.443Z,8
2023-03-09T12:38:58.400Z,8
2023-03-09T12:40:15.546Z,7
2023-03-09T12:41:30.680Z,7
2023-03-09T12:42:37.828Z,7
2023-03-09T12:43:51.545Z,8
2023-03-09T12:44:59.766Z,7
2023-03-09T12:46:11.923Z,9
2023-03-09T12:47:29.088Z,9
2023-03-09T12:48:38.744Z,8
2023-03-09T12:49:45.746Z,9
2023-03-09T12:50:52.757Z,7
2023-03-09T12:52:04.794Z,7
2023-03-09T12:53:12.959Z,10
2023-03-09T12:54:22.590Z,8
2023-03-09T12:55:29.630Z,8
2023-03-09T12:56:43.153Z,7
2023-03-09T12:57:51.395Z,7
2023-03-09T12:58:57.347Z,9
2023-03-09T13:00:04.478Z,7
2023-03-09T13:01:16.746Z,7
2023-03-09T13:02:23.798Z,7
2023-03-09T13:03:31.445Z,8
2023-03-09T13:04:46.633Z,8
2023-03-09T13:06:03.725Z,6
2023-03-09T13:07:16.671Z,8
2023-03-09T13:08:23.722Z,7
2023-03-09T13:09:33.720Z,9
2023-03-09T13:10:41.131Z,8
2023-03-09T13:11:48.105Z,7
2023-03-09T13:13:00.196Z,8
2023-03-09T13:14:13.152Z,9
2023-03-09T13:15:28.517Z,9
2023-03-09T13:16:36.514Z,10
2023-03-09T13:17:48.686Z,11
2023-03-09T13:19:05.886Z,10
2023-03-09T13:20:18.062Z,9
2023-03-09T13:21:29.156Z,10
2023-03-09T13:22:43.808Z,8
2023-03-09T13:23:50.845Z,7
2023-03-09T13:24:58.146Z,8
2023-03-09T13:26:15.345Z,7
2023-03-09T13:27:24.391Z,7
2023-03-09T13:28:31.549Z,7
2023-03-09T13:29:50.038Z,6
2023-03-09T13:30:54.438Z,7
2023-03-09T13:32:04.430Z,7
2023-03-09T13:33:11.438Z,6
2023-03-09T13:34:21.662Z,7
2023-03-09T13:35:30.363Z,5
2023-03-09T13:36:40.627Z,6
2023-03-09T13:37:50.278Z,6
2023-03-09T13:38:57.512Z,6
2023-03-09T13:40:04.439Z,6
2023-03-09T13:41:16.607Z,8
2023-03-09T13:42:26.345Z,7
2023-03-09T13:43:33.385Z,8
2023-03-09T13:44:42.570Z,7
2023-03-09T13:45:49.690Z,7
2023-03-09T13:46:59.807Z,6
2023-03-09T13:48:06.686Z,5
2023-03-09T13:49:19.810Z,7
2023-03-09T13:50:26.866Z,6
2023-03-09T13:51:36.954Z,5
2023-03-09T13:52:44.010Z,6
2023-03-09T13:54:01.195Z,12
2023-03-09T13:55:11.056Z,18
2023-03-09T13:56:20.845Z,26
2023-03-09T13:57:28.042Z,45
2023-03-09T13:58:35.193Z,26
2023-03-09T13:59:45.273Z,19
2023-03-09T14:00:57.476Z,43
2023-03-09T14:02:05.135Z,40
2023-03-09T14:03:12.048Z,42
2023-03-09T14:04:20.083Z,48
2023-03-09T14:07:41.293Z,64
2023-03-09T14:08:54.314Z,54
2023-03-09T14:10:01.679Z,66
2023-03-09T14:11:08.905Z,79
2023-03-09T14:12:16.081Z,29
2023-03-09T14:13:31.089Z,44
2023-03-09T14:14:38.745Z,68
2023-03-09T14:15:45.783Z,16
2023-03-09T14:16:58.289Z,27
2023-03-09T14:18:05.539Z,30
2023-03-09T14:19:17.766Z,42
2023-03-09T14:20:28.322Z,84
2023-03-09T14:21:38.479Z,44
2023-03-09T14:22:45.639Z,16
2023-03-09T14:23:53.472Z,14
2023-03-09T14:25:18.159Z,62
2023-03-09T14:26:25.356Z,12
2023-03-09T14:27:32.430Z,19
2023-03-09T14:28:42.502Z,75
2023-03-09T14:29:49.604Z,38
2023-03-09T14:30:58.231Z,75
2023-03-09T14:32:18.620Z,41
2023-03-09T14:33:32.331Z,40
2023-03-09T14:34:39.418Z,29
2023-03-09T14:35:47.578Z,28
2023-03-09T14:37:01.274Z,31
2023-03-09T14:38:10.955Z,86
2023-03-09T14:39:20.854Z,31
2023-03-09T14:40:32.956Z,44
2023-03-09T14:41:39.983Z,56
2023-03-09T14:42:47.017Z,64
2023-03-09T14:43:54.215Z,55
2023-03-09T14:45:02.113Z,38
2023-03-09T14:46:09.155Z,48
2023-03-09T14:47:24.823Z,26
2023-03-09T14:48:31.910Z,60
2023-03-09T14:49:38.982Z,45
2023-03-09T14:50:46.625Z,32
2023-03-09T14:51:53.723Z,94
2023-03-09T14:53:01.665Z,59
2023-03-09T14:54:08.735Z,65
2023-03-09T14:55:16.606Z,38
2023-03-09T14:56:23.668Z,34
2023-03-09T14:57:30.845Z,28
2023-03-09T14:58:40.699Z,22
2023-03-09T14:59:48.612Z,13
2023-03-09T15:00:58.762Z,13
2023-03-09T15:02:06.721Z,14
2023-03-09T15:03:16.671Z,11
2023-03-09T15:04:23.714Z,12
2023-03-09T15:05:30.720Z,10
2023-03-09T15:06:38.035Z,9
2023-03-09T15:07:45.065Z,10
2023-03-09T15:08:52.132Z,11
2023-03-09T15:10:03.204Z,12
2023-03-09T15:11:10.740Z,10
2023-03-09T15:12:17.767Z,11
2023-03-09T15:13:24.763Z,11
2023-03-09T15:14:35.483Z,11
2023-03-09T15:15:43.055Z,10
2023-03-09T15:16:50.178Z,13
2023-03-09T15:17:57.210Z,12
2023-03-09T15:19:04.198Z,12
2023-03-09T15:20:13.671Z,15
2023-03-09T15:21:21.292Z,17
2023-03-09T15:22:28.936Z,16
2023-03-09T15:23:36.186Z,15
2023-03-09T15:24:43.415Z,15
2023-03-09T15:25:50.408Z,15
2023-03-09T15:27:00.921Z,14
2023-03-09T15:28:08.848Z,17
2023-03-09T15:29:16.591Z,17
2023-03-09T15:30:23.884Z,18
2023-03-09T15:31:33.482Z,17
2023-03-09T15:32:41.318Z,15
2023-03-09T15:33:52.110Z,15
2023-03-09T15:35:01.859Z,19
2023-03-09T15:36:09.169Z,18
2023-03-09T15:37:16.537Z,19
2023-03-09T15:38:29.024Z,19
2023-03-09T15:39:34.162Z,18
2023-03-09T15:40:45.065Z,17
2023-03-09T15:41:52.210Z,18
2023-03-09T15:42:59.697Z,20
2023-03-09T15:44:07.154Z,39
2023-03-09T15:45:14.203Z,26
2023-03-09T15:46:21.294Z,23
2023-03-09T15:47:31.042Z,46
2023-03-09T15:48:38.070Z,96
2023-03-09T15:49:45.387Z,78
2023-03-09T15:50:52.245Z,42
2023-03-09T15:51:59.230Z,33
2023-03-09T15:53:06.264Z,22
2023-03-09T15:54:14.078Z,27
2023-03-09T15:55:21.142Z,16
2023-03-09T15:56:28.174Z,26
2023-03-09T15:57:37.265Z,87
2023-03-09T15:58:45.598Z,50
2023-03-09T15:59:52.603Z,129
2023-03-09T16:01:02.289Z,176
2023-03-09T16:02:09.355Z,131
2023-03-09T16:03:16.619Z,86
2023-03-09T16:04:24.109Z,63
2023-03-09T16:05:31.031Z,399
2023-03-09T16:06:38.671Z,306
2023-03-09T16:07:47.616Z,200
2023-03-09T16:08:54.570Z,160
2023-03-09T16:10:04.160Z,44
2023-03-09T16:11:11.332Z,208
2023-03-09T16:12:19.075Z,145
2023-03-09T16:13:27.700Z,125
2023-03-09T16:14:34.979Z,109
2023-03-09T16:15:42.048Z,170
2023-03-09T16:16:49.385Z,132
2023-03-09T16:17:56.342Z,107
2023-03-09T16:19:03.395Z,133
2023-03-09T16:20:10.388Z,160
2023-03-09T16:21:17.429Z,195
2023-03-09T16:22:24.444Z,163
2023-03-09T16:23:31.489Z,94
2023-03-09T16:24:38.555Z,52